sensor_id;sensor_type;location;lat;lon;timestamp;pressure;altitude;pressure_sealevel;temperature;humidity
20825;BME280;10573;50.936;6.978;2023-02-18T00:00:59;101948.16;;;13.42;68.45
20825;BME280;10573;50.936;6.978;2023-02-18T00:03:26;101958.09;;;13.43;68.41
20825;BME280;10573;50.936;6.978;2023-02-18T00:05:52;101956.31;;;13.54;68.22
20825;BME280;10573;50.936;6.978;2023-02-18T00:08:18;101945.97;;;13.36;68.54
20825;BME280;10573;50.936;6.978;2023-02-18T00:10:44;101940.13;;;13.82;67.26
20825;BME280;10573;50.936;6.978;2023-02-18T00:13:09;101938.84;;;13.55;68.13
20825;BME280;10573;50.936;6.978;2023-02-18T00:15:35;101935.72;;;13.59;67.83
20825;BME280;10573;50.936;6.978;2023-02-18T00:18:01;101940.53;;;13.67;67.64
20825;BME280;10573;50.936;6.978;2023-02-18T00:20:26;101936.75;;;13.68;67.65
20825;BME280;10573;50.936;6.978;2023-02-18T00:22:52;101941.38;;;13.68;67.68
20825;BME280;10573;50.936;6.978;2023-02-18T00:25:17;101935.09;;;13.77;67.31
20825;BME280;10573;50.936;6.978;2023-02-18T00:27:42;101926.66;;;13.59;68.06
20825;BME280;10573;50.936;6.978;2023-02-18T00:30:08;101934.66;;;13.51;68.13
20825;BME280;10573;50.936;6.978;2023-02-18T00:32:34;101930.00;;;13.41;68.53
20825;BME280;10573;50.936;6.978;2023-02-18T00:35:00;101929.19;;;13.82;67.39
20825;BME280;10573;50.936;6.978;2023-02-18T00:37:25;101925.69;;;13.70;67.83
20825;BME280;10573;50.936;6.978;2023-02-18T00:39:51;101924.94;;;13.68;67.95
20825;BME280;10573;50.936;6.978;2023-02-18T00:42:17;101913.88;;;13.48;68.12
20825;BME280;10573;50.936;6.978;2023-02-18T00:44:42;101907.81;;;13.66;67.70
20825;BME280;10573;50.936;6.978;2023-02-18T00:47:07;101913.34;;;13.54;68.33
20825;BME280;10573;50.936;6.978;2023-02-18T00:49:33;101902.53;;;13.53;68.05
20825;BME280;10573;50.936;6.978;2023-02-18T00:51:59;101893.19;;;13.55;68.32
20825;BME280;10573;50.936;6.978;2023-02-18T00:54:24;101896.97;;;13.64;67.73
20825;BME280;10573;50.936;6.978;2023-02-18T00:56:50;101900.44;;;13.66;67.62
20825;BME280;10573;50.936;6.978;2023-02-18T00:59:15;101904.03;;;13.67;67.72
20825;BME280;10573;50.936;6.978;2023-02-18T01:01:41;101896.22;;;13.52;68.06
20825;BME280;10573;50.936;6.978;2023-02-18T01:04:06;101893.69;;;13.39;68.86
20825;BME280;10573;50.936;6.978;2023-02-18T01:06:32;101892.72;;;13.50;68.49
20825;BME280;10573;50.936;6.978;2023-02-18T01:08:57;101894.59;;;13.29;68.86
20825;BME280;10573;50.936;6.978;2023-02-18T01:11:23;101878.72;;;13.43;68.22
20825;BME280;10573;50.936;6.978;2023-02-18T01:13:49;101883.56;;;13.61;68.05
20825;BME280;10573;50.936;6.978;2023-02-18T01:16:15;101880.31;;;13.77;67.56
20825;BME280;10573;50.936;6.978;2023-02-18T01:18:41;101883.47;;;13.72;67.34
20825;BME280;10573;50.936;6.978;2023-02-18T01:21:06;101882.84;;;13.59;67.99
20825;BME280;10573;50.936;6.978;2023-02-18T01:23:33;101885.50;;;13.49;68.35
20825;BME280;10573;50.936;6.978;2023-02-18T01:25:59;101886.78;;;13.45;68.66
20825;BME280;10573;50.936;6.978;2023-02-18T01:28:25;101880.28;;;13.67;68.17
20825;BME280;10573;50.936;6.978;2023-02-18T01:30:52;101885.94;;;13.75;67.80
20825;BME280;10573;50.936;6.978;2023-02-18T01:33:18;101878.25;;;13.69;68.07
20825;BME280;10573;50.936;6.978;2023-02-18T01:35:44;101885.66;;;13.48;68.66
20825;BME280;10573;50.936;6.978;2023-02-18T01:38:10;101869.69;;;13.53;68.50
20825;BME280;10573;50.936;6.978;2023-02-18T01:40:36;101859.72;;;13.52;68.61
20825;BME280;10573;50.936;6.978;2023-02-18T01:43:10;101864.97;;;13.13;69.34
20825;BME280;10573;50.936;6.978;2023-02-18T01:45:42;101869.53;;;13.54;69.06
20825;BME280;10573;50.936;6.978;2023-02-18T01:48:17;101869.97;;;13.50;68.80
20825;BME280;10573;50.936;6.978;2023-02-18T01:50:52;101862.59;;;13.29;69.28
20825;BME280;10573;50.936;6.978;2023-02-18T01:53:35;101861.94;;;13.58;68.64
20825;BME280;10573;50.936;6.978;2023-02-18T01:56:04;101863.34;;;13.31;69.52
20825;BME280;10573;50.936;6.978;2023-02-18T01:58:31;101861.75;;;13.50;69.12
20825;BME280;10573;50.936;6.978;2023-02-18T02:00:57;101857.75;;;13.54;68.71
20825;BME280;10573;50.936;6.978;2023-02-18T02:03:22;101845.78;;;13.34;69.81
20825;BME280;10573;50.936;6.978;2023-02-18T02:05:48;101846.00;;;13.21;70.03
20825;BME280;10573;50.936;6.978;2023-02-18T02:08:13;101838.66;;;13.42;69.59
20825;BME280;10573;50.936;6.978;2023-02-18T02:15:49;101831.19;;;13.45;69.76
20825;BME280;10573;50.936;6.978;2023-02-18T02:18:26;101829.25;;;13.66;69.30
20825;BME280;10573;50.936;6.978;2023-02-18T02:34:57;101810.97;;;13.36;70.12
20825;BME280;10573;50.936;6.978;2023-02-18T02:37:43;101807.81;;;13.40;69.97
20825;BME280;10573;50.936;6.978;2023-02-18T02:40:31;101811.34;;;13.62;69.60
20825;BME280;10573;50.936;6.978;2023-02-18T02:43:19;101816.03;;;13.40;69.65
20825;BME280;10573;50.936;6.978;2023-02-18T02:45:58;101798.66;;;13.61;69.19
20825;BME280;10573;50.936;6.978;2023-02-18T02:48:58;101799.81;;;13.58;69.34
20825;BME280;10573;50.936;6.978;2023-02-18T02:54:23;101791.88;;;13.24;70.55
20825;BME280;10573;50.936;6.978;2023-02-18T02:56:49;101786.72;;;13.31;70.58
20825;BME280;10573;50.936;6.978;2023-02-18T02:59:25;101787.22;;;13.36;70.27
20825;BME280;10573;50.936;6.978;2023-02-18T03:05:20;101772.41;;;13.49;69.98
20825;BME280;10573;50.936;6.978;2023-02-18T03:10:34;101764.34;;;13.16;71.38
20825;BME280;10573;50.936;6.978;2023-02-18T03:15:45;101756.44;;;13.23;71.07
20825;BME280;10573;50.936;6.978;2023-02-18T03:18:18;101754.53;;;13.45;70.68
20825;BME280;10573;50.936;6.978;2023-02-18T03:23:16;101752.94;;;13.11;71.96
20825;BME280;10573;50.936;6.978;2023-02-18T03:25:44;101751.31;;;12.78;73.88
20825;BME280;10573;50.936;6.978;2023-02-18T03:28:20;101743.34;;;12.96;74.13
20825;BME280;10573;50.936;6.978;2023-02-18T03:30:50;101747.50;;;12.90;73.74
20825;BME280;10573;50.936;6.978;2023-02-18T03:33:24;101749.88;;;13.04;73.48
20825;BME280;10573;50.936;6.978;2023-02-18T03:35:51;101738.19;;;13.02;73.23
20825;BME280;10573;50.936;6.978;2023-02-18T03:38:22;101739.25;;;13.11;73.35
20825;BME280;10573;50.936;6.978;2023-02-18T03:40:49;101744.25;;;12.75;74.93
20825;BME280;10573;50.936;6.978;2023-02-18T03:43:14;101747.47;;;12.59;76.04
20825;BME280;10573;50.936;6.978;2023-02-18T03:45:40;101745.84;;;12.78;75.49
20825;BME280;10573;50.936;6.978;2023-02-18T03:48:06;101756.78;;;12.78;75.88
20825;BME280;10573;50.936;6.978;2023-02-18T03:50:31;101755.06;;;12.76;75.60
20825;BME280;10573;50.936;6.978;2023-02-18T03:52:57;101749.25;;;12.70;76.16
20825;BME280;10573;50.936;6.978;2023-02-18T03:55:22;101753.53;;;12.84;75.64
20825;BME280;10573;50.936;6.978;2023-02-18T03:57:48;101747.19;;;12.62;75.76
20825;BME280;10573;50.936;6.978;2023-02-18T04:00:13;101748.97;;;12.94;75.34
20825;BME280;10573;50.936;6.978;2023-02-18T04:02:40;101742.97;;;12.79;75.24
20825;BME280;10573;50.936;6.978;2023-02-18T04:05:06;101737.19;;;12.72;75.63
20825;BME280;10573;50.936;6.978;2023-02-18T04:07:32;101744.22;;;12.96;74.90
20825;BME280;10573;50.936;6.978;2023-02-18T04:09:57;101737.38;;;12.81;75.05
20825;BME280;10573;50.936;6.978;2023-02-18T04:12:23;101735.19;;;12.74;74.68
20825;BME280;10573;50.936;6.978;2023-02-18T04:14:48;101730.16;;;12.80;74.18
20825;BME280;10573;50.936;6.978;2023-02-18T04:17:14;101717.22;;;13.13;73.21
20825;BME280;10573;50.936;6.978;2023-02-18T04:19:39;101719.28;;;13.30;72.55
20825;BME280;10573;50.936;6.978;2023-02-18T04:22:04;101702.72;;;12.81;72.86
20825;BME280;10573;50.936;6.978;2023-02-18T04:24:30;101711.59;;;13.14;71.91
20825;BME280;10573;50.936;6.978;2023-02-18T04:26:55;101706.59;;;13.19;71.62
20825;BME280;10573;50.936;6.978;2023-02-18T04:29:21;101693.88;;;13.08;71.60
20825;BME280;10573;50.936;6.978;2023-02-18T04:31:46;101689.56;;;13.16;71.14
20825;BME280;10573;50.936;6.978;2023-02-18T04:34:11;101693.34;;;13.15;71.02
20825;BME280;10573;50.936;6.978;2023-02-18T04:36:37;101700.69;;;13.24;70.69
20825;BME280;10573;50.936;6.978;2023-02-18T04:39:02;101696.25;;;13.33;70.43
20825;BME280;10573;50.936;6.978;2023-02-18T04:41:28;101690.47;;;13.26;70.28
20825;BME280;10573;50.936;6.978;2023-02-18T04:43:53;101696.09;;;13.24;70.23
20825;BME280;10573;50.936;6.978;2023-02-18T04:46:19;101687.59;;;13.18;70.31
20825;BME280;10573;50.936;6.978;2023-02-18T04:48:44;101697.00;;;12.94;71.36
20825;BME280;10573;50.936;6.978;2023-02-18T04:51:09;101684.09;;;13.16;70.83
20825;BME280;10573;50.936;6.978;2023-02-18T04:53:35;101677.38;;;12.89;71.70
20825;BME280;10573;50.936;6.978;2023-02-18T04:56:00;101680.38;;;13.17;70.70
20825;BME280;10573;50.936;6.978;2023-02-18T04:58:26;101686.03;;;12.94;71.29
20825;BME280;10573;50.936;6.978;2023-02-18T05:00:51;101687.28;;;13.11;71.06
20825;BME280;10573;50.936;6.978;2023-02-18T05:03:18;101689.53;;;12.96;72.43
20825;BME280;10573;50.936;6.978;2023-02-18T05:05:43;101681.38;;;12.75;73.64
20825;BME280;10573;50.936;6.978;2023-02-18T05:08:10;101684.34;;;12.41;75.00
20825;BME280;10573;50.936;6.978;2023-02-18T05:10:37;101677.56;;;12.66;75.57
20825;BME280;10573;50.936;6.978;2023-02-18T05:13:02;101681.81;;;12.49;76.64
20825;BME280;10573;50.936;6.978;2023-02-18T05:15:28;101677.28;;;12.17;77.90
20825;BME280;10573;50.936;6.978;2023-02-18T05:17:53;101671.16;;;12.46;77.62
20825;BME280;10573;50.936;6.978;2023-02-18T05:20:18;101671.97;;;12.16;78.53
20825;BME280;10573;50.936;6.978;2023-02-18T05:22:44;101670.22;;;12.15;78.67
20825;BME280;10573;50.936;6.978;2023-02-18T05:25:10;101675.69;;;12.36;78.14
20825;BME280;10573;50.936;6.978;2023-02-18T05:27:35;101668.75;;;12.11;78.99
20825;BME280;10573;50.936;6.978;2023-02-18T05:30:00;101670.09;;;12.16;78.95
20825;BME280;10573;50.936;6.978;2023-02-18T05:32:26;101667.88;;;12.31;78.82
20825;BME280;10573;50.936;6.978;2023-02-18T05:34:51;101672.81;;;12.37;78.63
20825;BME280;10573;50.936;6.978;2023-02-18T05:37:17;101662.78;;;12.17;78.79
20825;BME280;10573;50.936;6.978;2023-02-18T05:39:43;101662.44;;;12.10;78.99
20825;BME280;10573;50.936;6.978;2023-02-18T05:42:09;101652.13;;;12.45;78.05
20825;BME280;10573;50.936;6.978;2023-02-18T05:44:35;101653.97;;;12.34;77.79
20825;BME280;10573;50.936;6.978;2023-02-18T05:47:11;101654.97;;;12.33;77.72
20825;BME280;10573;50.936;6.978;2023-02-18T05:49:37;101640.22;;;12.24;78.35
20825;BME280;10573;50.936;6.978;2023-02-18T05:52:04;101642.00;;;12.35;77.93
20825;BME280;10573;50.936;6.978;2023-02-18T05:54:29;101646.41;;;12.48;77.57
20825;BME280;10573;50.936;6.978;2023-02-18T05:56:55;101637.16;;;12.39;77.04
20825;BME280;10573;50.936;6.978;2023-02-18T05:59:21;101635.41;;;12.38;77.28
20825;BME280;10573;50.936;6.978;2023-02-18T06:01:47;101627.91;;;12.30;77.04
20825;BME280;10573;50.936;6.978;2023-02-18T06:04:13;101628.50;;;12.34;76.56
20825;BME280;10573;50.936;6.978;2023-02-18T06:06:39;101612.56;;;12.39;76.15
20825;BME280;10573;50.936;6.978;2023-02-18T06:09:05;101616.19;;;12.39;75.85
20825;BME280;10573;50.936;6.978;2023-02-18T06:11:30;101611.31;;;12.53;74.75
20825;BME280;10573;50.936;6.978;2023-02-18T06:13:56;101622.56;;;12.29;75.43
20825;BME280;10573;50.936;6.978;2023-02-18T06:16:21;101625.50;;;12.37;75.15
20825;BME280;10573;50.936;6.978;2023-02-18T06:18:47;101612.56;;;12.18;75.90
20825;BME280;10573;50.936;6.978;2023-02-18T06:21:12;101621.56;;;12.30;75.49
20825;BME280;10573;50.936;6.978;2023-02-18T06:23:37;101611.56;;;12.40;75.30
20825;BME280;10573;50.936;6.978;2023-02-18T06:26:03;101616.56;;;12.14;76.39
20825;BME280;10573;50.936;6.978;2023-02-18T06:28:29;101611.53;;;12.09;76.07
20825;BME280;10573;50.936;6.978;2023-02-18T06:30:55;101606.91;;;12.31;75.67
20825;BME280;10573;50.936;6.978;2023-02-18T06:33:20;101607.75;;;12.31;75.45
20825;BME280;10573;50.936;6.978;2023-02-18T06:36:06;101599.22;;;12.46;74.39
20825;BME280;10573;50.936;6.978;2023-02-18T06:38:32;101598.38;;;12.55;73.62
20825;BME280;10573;50.936;6.978;2023-02-18T06:40:58;101608.06;;;12.69;72.73
20825;BME280;10573;50.936;6.978;2023-02-18T06:43:24;101613.16;;;12.42;72.56
20825;BME280;10573;50.936;6.978;2023-02-18T06:45:50;101612.22;;;12.63;71.95
20825;BME280;10573;50.936;6.978;2023-02-18T06:48:15;101601.56;;;12.50;71.37
20825;BME280;10573;50.936;6.978;2023-02-18T06:50:41;101612.00;;;12.76;70.50
20825;BME280;10573;50.936;6.978;2023-02-18T06:53:07;101599.94;;;12.79;69.85
20825;BME280;10573;50.936;6.978;2023-02-18T06:55:32;101597.56;;;12.64;70.05
20825;BME280;10573;50.936;6.978;2023-02-18T06:57:57;101591.38;;;12.62;69.78
20825;BME280;10573;50.936;6.978;2023-02-18T07:00:23;101588.88;;;13.00;68.89
20825;BME280;10573;50.936;6.978;2023-02-18T07:02:49;101591.91;;;12.97;68.24
20825;BME280;10573;50.936;6.978;2023-02-18T07:05:14;101596.09;;;13.01;68.36
20825;BME280;10573;50.936;6.978;2023-02-18T07:07:40;101579.75;;;12.70;68.62
20825;BME280;10573;50.936;6.978;2023-02-18T07:10:06;101589.53;;;12.72;68.43
20825;BME280;10573;50.936;6.978;2023-02-18T07:12:32;101597.09;;;13.00;67.61
20825;BME280;10573;50.936;6.978;2023-02-18T07:14:57;101596.16;;;12.80;67.98
20825;BME280;10573;50.936;6.978;2023-02-18T07:17:23;101596.78;;;12.93;67.60
20825;BME280;10573;50.936;6.978;2023-02-18T07:19:48;101599.72;;;13.21;66.57
20825;BME280;10573;50.936;6.978;2023-02-18T07:22:14;101624.50;;;13.09;66.70
20825;BME280;10573;50.936;6.978;2023-02-18T07:24:39;101625.78;;;13.05;66.76
20825;BME280;10573;50.936;6.978;2023-02-18T07:27:04;101644.56;;;12.89;67.07
20825;BME280;10573;50.936;6.978;2023-02-18T07:29:30;101649.81;;;13.12;66.14
20825;BME280;10573;50.936;6.978;2023-02-18T07:31:55;101638.19;;;13.19;66.22
20825;BME280;10573;50.936;6.978;2023-02-18T07:34:21;101638.31;;;13.08;66.49
20825;BME280;10573;50.936;6.978;2023-02-18T07:36:46;101627.94;;;13.12;66.11
20825;BME280;10573;50.936;6.978;2023-02-18T07:39:11;101626.25;;;13.30;65.66
20825;BME280;10573;50.936;6.978;2023-02-18T07:41:37;101617.44;;;13.17;65.90
20825;BME280;10573;50.936;6.978;2023-02-18T07:44:03;101617.03;;;13.21;65.74
20825;BME280;10573;50.936;6.978;2023-02-18T07:46:28;101617.75;;;13.23;65.63
20825;BME280;10573;50.936;6.978;2023-02-18T07:48:55;101615.69;;;13.16;65.63
20825;BME280;10573;50.936;6.978;2023-02-18T07:51:21;101621.38;;;13.34;65.14
20825;BME280;10573;50.936;6.978;2023-02-18T07:53:47;101604.06;;;13.33;65.16
20825;BME280;10573;50.936;6.978;2023-02-18T07:56:12;101609.78;;;13.10;66.31
20825;BME280;10573;50.936;6.978;2023-02-18T07:58:38;101627.63;;;12.95;66.92
20825;BME280;10573;50.936;6.978;2023-02-18T08:01:05;101627.16;;;12.90;67.04
20825;BME280;10573;50.936;6.978;2023-02-18T08:03:31;101627.06;;;13.01;67.69
20825;BME280;10573;50.936;6.978;2023-02-18T08:05:57;101626.31;;;12.99;67.78
20825;BME280;10573;50.936;6.978;2023-02-18T08:08:25;101649.94;;;13.00;68.38
20825;BME280;10573;50.936;6.978;2023-02-18T08:10:52;101665.50;;;12.69;68.94
20825;BME280;10573;50.936;6.978;2023-02-18T08:13:18;101660.72;;;12.61;69.39
20825;BME280;10573;50.936;6.978;2023-02-18T08:15:44;101676.66;;;12.56;69.79
20825;BME280;10573;50.936;6.978;2023-02-18T08:18:18;101688.91;;;12.83;69.48
20825;BME280;10573;50.936;6.978;2023-02-18T08:20:45;101685.34;;;12.40;69.86
20825;BME280;10573;50.936;6.978;2023-02-18T08:23:12;101692.28;;;12.23;69.57
20825;BME280;10573;50.936;6.978;2023-02-18T08:25:37;101679.88;;;12.61;67.78
20825;BME280;10573;50.936;6.978;2023-02-18T08:28:03;101683.59;;;12.60;67.27
20825;BME280;10573;50.936;6.978;2023-02-18T08:30:29;101684.13;;;12.54;67.21
20825;BME280;10573;50.936;6.978;2023-02-18T08:32:54;101710.31;;;12.78;66.49
20825;BME280;10573;50.936;6.978;2023-02-18T08:35:20;101707.97;;;12.73;66.04
20825;BME280;10573;50.936;6.978;2023-02-18T08:37:45;101704.38;;;12.72;65.23
20825;BME280;10573;50.936;6.978;2023-02-18T08:40:11;101704.00;;;12.56;64.92
20825;BME280;10573;50.936;6.978;2023-02-18T08:42:38;101715.75;;;12.47;64.43
20825;BME280;10573;50.936;6.978;2023-02-18T08:45:04;101706.06;;;12.64;63.41
20825;BME280;10573;50.936;6.978;2023-02-18T08:47:30;101720.31;;;12.67;63.56
20825;BME280;10573;50.936;6.978;2023-02-18T08:49:55;101720.00;;;12.61;62.81
20825;BME280;10573;50.936;6.978;2023-02-18T08:52:21;101709.47;;;12.56;62.59
20825;BME280;10573;50.936;6.978;2023-02-18T08:54:46;101706.56;;;12.79;62.59
20825;BME280;10573;50.936;6.978;2023-02-18T08:57:12;101715.94;;;12.55;62.78
20825;BME280;10573;50.936;6.978;2023-02-18T08:59:37;101717.97;;;12.84;62.16
20825;BME280;10573;50.936;6.978;2023-02-18T09:02:03;101707.34;;;12.38;62.56
20825;BME280;10573;50.936;6.978;2023-02-18T09:04:29;101705.66;;;12.68;62.40
20825;BME280;10573;50.936;6.978;2023-02-18T09:06:55;101701.59;;;12.63;62.36
20825;BME280;10573;50.936;6.978;2023-02-18T09:09:21;101708.47;;;12.57;62.87
20825;BME280;10573;50.936;6.978;2023-02-18T09:11:46;101705.50;;;12.70;62.17
20825;BME280;10573;50.936;6.978;2023-02-18T09:14:12;101704.00;;;13.18;61.65
20825;BME280;10573;50.936;6.978;2023-02-18T09:16:38;101688.19;;;13.21;61.38
20825;BME280;10573;50.936;6.978;2023-02-18T09:19:05;101693.53;;;12.92;61.57
20825;BME280;10573;50.936;6.978;2023-02-18T09:21:31;101697.47;;;13.09;61.77
20825;BME280;10573;50.936;6.978;2023-02-18T09:23:57;101697.25;;;12.81;62.12
20825;BME280;10573;50.936;6.978;2023-02-18T09:26:22;101680.41;;;12.55;62.30
20825;BME280;10573;50.936;6.978;2023-02-18T09:28:50;101682.03;;;12.67;62.63
20825;BME280;10573;50.936;6.978;2023-02-18T09:31:18;101674.28;;;12.41;63.20
20825;BME280;10573;50.936;6.978;2023-02-18T09:33:51;101664.31;;;12.62;62.30
20825;BME280;10573;50.936;6.978;2023-02-18T09:36:17;101682.53;;;12.51;62.26
20825;BME280;10573;50.936;6.978;2023-02-18T09:38:42;101668.81;;;12.72;61.94
20825;BME280;10573;50.936;6.978;2023-02-18T09:41:17;101662.09;;;12.76;61.93
20825;BME280;10573;50.936;6.978;2023-02-18T09:43:48;101669.81;;;12.71;61.65
20825;BME280;10573;50.936;6.978;2023-02-18T09:48:47;101662.78;;;13.09;61.07
20825;BME280;10573;50.936;6.978;2023-02-18T09:51:14;101663.09;;;13.16;60.81
20825;BME280;10573;50.936;6.978;2023-02-18T09:53:41;101654.38;;;12.91;61.14
20825;BME280;10573;50.936;6.978;2023-02-18T09:56:12;101652.09;;;13.06;60.74
20825;BME280;10573;50.936;6.978;2023-02-18T09:58:39;101662.34;;;13.04;60.74
20825;BME280;10573;50.936;6.978;2023-02-18T10:01:36;101646.28;;;12.80;60.93
20825;BME280;10573;50.936;6.978;2023-02-18T10:04:09;101637.19;;;12.80;60.98
20825;BME280;10573;50.936;6.978;2023-02-18T10:06:37;101651.31;;;12.85;60.83
20825;BME280;10573;50.936;6.978;2023-02-18T10:09:09;101639.59;;;12.73;61.34
20825;BME280;10573;50.936;6.978;2023-02-18T10:11:41;101633.38;;;12.92;60.78
20825;BME280;10573;50.936;6.978;2023-02-18T10:14:13;101629.53;;;13.24;59.85
20825;BME280;10573;50.936;6.978;2023-02-18T10:16:40;101623.50;;;13.30;60.16
20825;BME280;10573;50.936;6.978;2023-02-18T10:19:22;101630.13;;;13.18;60.01
20825;BME280;10573;50.936;6.978;2023-02-18T10:21:51;101635.69;;;13.06;59.98
20825;BME280;10573;50.936;6.978;2023-02-18T10:27:08;101638.25;;;12.88;61.33
20825;BME280;10573;50.936;6.978;2023-02-18T10:29:34;101619.84;;;13.00;61.55
20825;BME280;10573;50.936;6.978;2023-02-18T10:32:05;101623.25;;;12.83;62.44
20825;BME280;10573;50.936;6.978;2023-02-18T10:40:17;101627.00;;;12.82;63.65
20825;BME280;10573;50.936;6.978;2023-02-18T10:43:11;101620.03;;;12.68;63.88
20825;BME280;10573;50.936;6.978;2023-02-18T10:45:48;101623.13;;;12.84;63.26
20825;BME280;10573;50.936;6.978;2023-02-18T10:50:59;101634.09;;;12.63;63.39
20825;BME280;10573;50.936;6.978;2023-02-18T10:53:38;101629.28;;;12.76;63.36
20825;BME280;10573;50.936;6.978;2023-02-18T10:56:05;101635.31;;;12.70;63.63
20825;BME280;10573;50.936;6.978;2023-02-18T11:01:05;101621.31;;;13.04;62.81
20825;BME280;10573;50.936;6.978;2023-02-18T11:03:48;101624.94;;;13.24;62.49
20825;BME280;10573;50.936;6.978;2023-02-18T11:06:31;101623.88;;;12.96;65.44
20825;BME280;10573;50.936;6.978;2023-02-18T11:08:58;101632.78;;;12.88;66.35
20825;BME280;10573;50.936;6.978;2023-02-18T11:11:29;101653.16;;;12.74;67.42
20825;BME280;10573;50.936;6.978;2023-02-18T11:13:59;101663.81;;;12.47;68.12
20825;BME280;10573;50.936;6.978;2023-02-18T11:16:45;101652.16;;;12.02;69.16
20825;BME280;10573;50.936;6.978;2023-02-18T11:19:34;101658.53;;;12.55;68.94
20825;BME280;10573;50.936;6.978;2023-02-18T11:22:19;101657.72;;;12.64;68.61
20825;BME280;10573;50.936;6.978;2023-02-18T11:24:45;101652.78;;;12.58;68.62
20825;BME280;10573;50.936;6.978;2023-02-18T11:27:23;101648.38;;;12.67;68.58
20825;BME280;10573;50.936;6.978;2023-02-18T11:29:52;101645.13;;;12.21;69.92
20825;BME280;10573;50.936;6.978;2023-02-18T11:32:18;101656.38;;;12.28;70.91
20825;BME280;10573;50.936;6.978;2023-02-18T11:34:44;101663.25;;;12.53;70.44
20825;BME280;10573;50.936;6.978;2023-02-18T11:37:18;101654.69;;;12.36;71.76
20825;BME280;10573;50.936;6.978;2023-02-18T11:39:47;101659.75;;;12.20;72.43
20825;BME280;10573;50.936;6.978;2023-02-18T11:42:16;101651.81;;;12.38;72.50
20825;BME280;10573;50.936;6.978;2023-02-18T11:44:52;101663.75;;;12.16;73.06
20825;BME280;10573;50.936;6.978;2023-02-18T11:47:53;101659.97;;;11.74;74.61
20825;BME280;10573;50.936;6.978;2023-02-18T11:50:20;101656.88;;;11.68;74.99
20825;BME280;10573;50.936;6.978;2023-02-18T11:52:48;101667.22;;;11.85;75.03
20825;BME280;10573;50.936;6.978;2023-02-18T11:57:48;101672.88;;;11.72;75.47
20825;BME280;10573;50.936;6.978;2023-02-18T12:02:50;101660.44;;;11.80;75.06
20825;BME280;10573;50.936;6.978;2023-02-18T12:05:22;101656.88;;;12.00;74.92
20825;BME280;10573;50.936;6.978;2023-02-18T12:07:57;101649.72;;;11.99;74.65
20825;BME280;10573;50.936;6.978;2023-02-18T12:15:25;101658.91;;;11.87;75.80
20825;BME280;10573;50.936;6.978;2023-02-18T12:23:36;101653.03;;;12.03;74.72
20825;BME280;10573;50.936;6.978;2023-02-18T12:28:46;101648.03;;;12.29;74.45
20825;BME280;10573;50.936;6.978;2023-02-18T12:31:19;101653.81;;;12.15;74.66
20825;BME280;10573;50.936;6.978;2023-02-18T12:36:55;101653.50;;;12.29;73.76
20825;BME280;10573;50.936;6.978;2023-02-18T12:42:15;101640.13;;;12.26;73.23
20825;BME280;10573;50.936;6.978;2023-02-18T12:45:21;101641.97;;;12.25;72.82
20825;BME280;10573;50.936;6.978;2023-02-18T12:50:54;101645.13;;;12.21;72.64
20825;BME280;10573;50.936;6.978;2023-02-18T12:53:44;101648.78;;;12.10;73.46
20825;BME280;10573;50.936;6.978;2023-02-18T12:56:36;101637.63;;;12.23;73.27
20825;BME280;10573;50.936;6.978;2023-02-18T12:59:49;101634.75;;;12.24;73.55
20825;BME280;10573;50.936;6.978;2023-02-18T13:10:27;101639.59;;;12.42;72.48
20825;BME280;10573;50.936;6.978;2023-02-18T13:17:56;101660.34;;;12.45;72.48
20825;BME280;10573;50.936;6.978;2023-02-18T13:20:29;101651.03;;;12.26;73.00
20825;BME280;10573;50.936;6.978;2023-02-18T13:22:56;101644.41;;;12.50;72.55
20825;BME280;10573;50.936;6.978;2023-02-18T13:25:22;101650.44;;;12.44;72.51
20825;BME280;10573;50.936;6.978;2023-02-18T13:28:38;101633.66;;;12.58;72.36
20825;BME280;10573;50.936;6.978;2023-02-18T13:31:51;101642.66;;;12.80;71.67
20825;BME280;10573;50.936;6.978;2023-02-18T13:34:39;101639.56;;;12.63;71.96
20825;BME280;10573;50.936;6.978;2023-02-18T13:37:14;101648.44;;;12.55;71.88
20825;BME280;10573;50.936;6.978;2023-02-18T13:39:51;101634.41;;;12.70;71.96
20825;BME280;10573;50.936;6.978;2023-02-18T13:42:38;101642.91;;;12.36;72.73
20825;BME280;10573;50.936;6.978;2023-02-18T13:45:06;101627.84;;;12.51;72.29
20825;BME280;10573;50.936;6.978;2023-02-18T13:47:46;101644.41;;;12.50;71.91
20825;BME280;10573;50.936;6.978;2023-02-18T13:58:03;101643.22;;;12.42;73.28
20825;BME280;10573;50.936;6.978;2023-02-18T14:00:38;101633.91;;;12.24;74.19
20825;BME280;10573;50.936;6.978;2023-02-18T14:03:34;101647.81;;;12.42;74.61
20825;BME280;10573;50.936;6.978;2023-02-18T14:06:01;101638.09;;;12.28;75.16
20825;BME280;10573;50.936;6.978;2023-02-18T14:08:38;101636.72;;;12.13;75.16
20825;BME280;10573;50.936;6.978;2023-02-18T14:13:51;101625.69;;;12.45;74.50
20825;BME280;10573;50.936;6.978;2023-02-18T14:16:18;101639.38;;;12.24;75.46
20825;BME280;10573;50.936;6.978;2023-02-18T14:23:42;101631.28;;;12.74;73.60
20825;BME280;10573;50.936;6.978;2023-02-18T14:29:16;101632.13;;;12.65;73.19
20825;BME280;10573;50.936;6.978;2023-02-18T14:31:46;101617.00;;;12.61;72.94
20825;BME280;10573;50.936;6.978;2023-02-18T14:37:27;101624.72;;;12.87;71.29
20825;BME280;10573;50.936;6.978;2023-02-18T14:40:19;101622.50;;;12.81;70.81
20825;BME280;10573;50.936;6.978;2023-02-18T14:51:01;101630.72;;;12.81;70.67
20825;BME280;10573;50.936;6.978;2023-02-18T14:53:27;101634.25;;;13.02;70.18
20825;BME280;10573;50.936;6.978;2023-02-18T14:55:58;101626.81;;;12.73;70.77
20825;BME280;10573;50.936;6.978;2023-02-18T14:58:35;101618.09;;;12.89;70.44
20825;BME280;10573;50.936;6.978;2023-02-18T15:01:21;101624.88;;;12.95;70.75